createdAt,value
2023-03-04T00:02:23.884Z,36.72
2023-03-04T00:04:51.363Z,35.00
2023-03-04T00:07:19.056Z,35.85
2023-03-04T00:09:46.761Z,31.25
2023-03-04T00:12:14.312Z,32.08
2023-03-04T00:14:42.064Z,29.88
2023-03-04T00:17:09.492Z,27.20
2023-03-04T00:19:36.862Z,33.22
2023-03-04T00:22:04.672Z,43.75
2023-03-04T00:24:32.136Z,31.05
2023-03-04T00:26:59.597Z,34.42
2023-03-04T00:29:27.009Z,33.90
2023-03-04T00:31:54.623Z,31.90
2023-03-04T00:34:22.243Z,32.20
2023-03-04T00:36:49.494Z,38.83
2023-03-04T00:39:16.890Z,33.78
2023-03-04T00:41:44.289Z,38.40
2023-03-04T00:44:11.559Z,32.72
2023-03-04T00:46:38.795Z,38.85
2023-03-04T00:49:06.089Z,33.05
2023-03-04T00:51:33.393Z,39.92
2023-03-04T00:54:01.094Z,30.08
2023-03-04T00:56:28.546Z,33.78
2023-03-04T00:58:55.998Z,32.45
2023-03-04T01:01:23.409Z,34.10
2023-03-04T01:03:50.747Z,31.02
2023-03-04T01:06:18.057Z,35.83
2023-03-04T01:08:45.447Z,33.60
2023-03-04T01:11:12.721Z,36.28
2023-03-04T01:13:40.405Z,36.08
2023-03-04T01:16:08.134Z,35.83
2023-03-04T01:18:35.503Z,32.28
2023-03-04T01:21:02.837Z,32.03
2023-03-04T01:23:30.150Z,32.33
2023-03-04T01:25:57.449Z,34.83
2023-03-04T01:28:24.825Z,33.75
2023-03-04T01:30:52.097Z,29.80
2023-03-04T01:33:19.443Z,32.17
2023-03-04T01:35:46.762Z,32.78
2023-03-04T01:38:14.466Z,31.50
2023-03-04T01:40:41.769Z,35.08
2023-03-04T01:43:11.590Z,36.47
2023-03-04T01:45:40.285Z,34.20
2023-03-04T01:48:10.010Z,38.05
2023-03-04T01:50:37.251Z,30.38
2023-03-04T01:53:04.719Z,33.30
2023-03-04T01:55:32.127Z,39.72
2023-03-04T01:57:59.827Z,33.17
2023-03-04T02:00:32.162Z,31.33
2023-03-04T02:03:01.131Z,29.02
2023-03-04T02:05:29.071Z,34.88
2023-03-04T02:07:56.730Z,28.50
2023-03-04T02:10:24.098Z,35.03
2023-03-04T02:12:51.530Z,37.08
2023-03-04T02:15:18.885Z,33.15
2023-03-04T02:17:46.102Z,33.42
2023-03-04T02:20:13.620Z,37.53
2023-03-04T02:22:44.145Z,36.67
2023-03-04T02:25:13.416Z,30.63
2023-03-04T02:27:40.869Z,32.38
2023-03-04T02:30:08.502Z,34.08
2023-03-04T02:32:35.797Z,32.90
2023-03-04T02:35:03.078Z,38.63
2023-03-04T02:37:30.346Z,40.00
2023-03-04T02:40:00.690Z,30.88
2023-03-04T02:42:27.990Z,34.25
2023-03-04T02:45:01.924Z,26.95
2023-03-04T02:47:29.171Z,32.10
2023-03-04T02:49:56.647Z,32.50
2023-03-04T02:52:25.345Z,31.83
2023-03-04T02:54:55.254Z,30.70
2023-03-04T02:57:22.486Z,31.55
2023-03-04T02:59:49.734Z,27.15
2023-03-04T03:02:17.004Z,31.30
2023-03-04T03:04:44.382Z,29.65
2023-03-04T03:07:11.637Z,28.65
2023-03-04T03:09:38.889Z,26.00
2023-03-04T03:12:06.296Z,28.50
2023-03-04T03:14:33.602Z,26.63
2023-03-04T03:17:00.808Z,26.55
2023-03-04T03:19:28.053Z,24.30
2023-03-04T03:21:55.390Z,27.60
2023-03-04T03:24:22.656Z,34.20
2023-03-04T03:26:49.938Z,27.48
2023-03-04T03:29:17.181Z,24.38
2023-03-04T03:31:44.402Z,25.63
2023-03-04T03:34:11.661Z,27.02
2023-03-04T03:36:38.954Z,28.73
2023-03-04T03:39:06.487Z,25.45
2023-03-04T03:41:33.731Z,21.48
2023-03-04T03:44:01.947Z,29.05
2023-03-04T03:46:29.973Z,21.20
2023-03-04T03:48:57.261Z,22.58
2023-03-04T03:51:24.536Z,20.70
2023-03-04T03:53:51.799Z,24.10
2023-03-04T03:56:19.010Z,23.77
2023-03-04T03:58:46.266Z,22.77
2023-03-04T04:01:13.497Z,27.45
2023-03-04T04:03:40.843Z,18.27
2023-03-04T04:06:08.141Z,17.83
2023-03-04T04:08:35.441Z,19.48
2023-03-04T04:11:02.704Z,18.45
2023-03-04T04:13:29.990Z,18.80
2023-03-04T04:15:57.248Z,20.90
2023-03-04T04:18:25.937Z,19.52
2023-03-04T04:20:53.702Z,22.95
2023-03-04T04:23:20.994Z,23.77
2023-03-04T04:25:48.248Z,19.95
2023-03-04T04:28:15.504Z,17.20
2023-03-04T04:30:43.021Z,18.60
2023-03-04T04:33:10.990Z,18.88
2023-03-04T04:35:39.291Z,17.60
2023-03-04T04:38:07.215Z,16.23
2023-03-04T04:40:34.463Z,18.02
2023-03-04T04:43:01.731Z,18.65
2023-03-04T04:45:28.946Z,17.73
2023-03-04T04:47:57.565Z,18.48
2023-03-04T04:50:28.213Z,16.13
2023-03-04T04:52:55.448Z,12.82
2023-03-04T04:55:25.060Z,17.63
2023-03-04T04:57:52.338Z,15.35
2023-03-04T05:00:19.792Z,14.23
2023-03-04T05:02:47.009Z,17.67
2023-03-04T05:05:14.379Z,16.67
2023-03-04T05:07:41.615Z,19.25
2023-03-04T05:10:09.354Z,18.17
2023-03-04T05:12:36.677Z,16.38
2023-03-04T05:15:04.147Z,15.40
2023-03-04T05:17:31.381Z,15.00
2023-03-04T05:19:58.602Z,19.02
2023-03-04T05:22:26.103Z,16.13
2023-03-04T05:24:53.415Z,15.75
2023-03-04T05:27:20.659Z,13.55
2023-03-04T05:29:47.960Z,14.77
2023-03-04T05:32:15.313Z,17.60
2023-03-04T05:34:42.601Z,13.13
2023-03-04T05:37:09.860Z,12.95
2023-03-04T05:39:37.104Z,14.73
2023-03-04T05:42:04.432Z,15.60
2023-03-04T05:44:31.645Z,12.68
2023-03-04T05:46:58.895Z,16.73
2023-03-04T05:49:26.157Z,13.70
2023-03-04T05:51:54.072Z,10.95
2023-03-04T05:54:21.799Z,10.07
2023-03-04T05:56:49.242Z,13.18
2023-03-04T05:59:21.022Z,12.07
2023-03-04T06:01:48.655Z,16.08
2023-03-04T06:04:15.948Z,11.98
2023-03-04T06:06:43.380Z,12.27
2023-03-04T06:09:10.693Z,11.10
2023-03-04T06:11:37.890Z,10.98
2023-03-04T06:14:05.245Z,11.60
2023-03-04T06:16:32.910Z,12.35
2023-03-04T06:19:00.235Z,19.98
2023-03-04T06:21:27.443Z,13.02
2023-03-04T06:23:54.692Z,14.30
2023-03-04T06:26:21.971Z,10.90
2023-03-04T06:28:49.313Z,11.95
2023-03-04T06:31:16.739Z,15.63
2023-03-04T06:33:44.003Z,39.13
2023-03-04T06:36:11.337Z,19.88
2023-03-04T06:38:38.572Z,14.65
2023-03-04T06:41:09.675Z,11.05
2023-03-04T06:43:37.368Z,12.38
2023-03-04T06:46:04.831Z,9.02
2023-03-04T06:48:32.067Z,6.88
2023-03-04T06:50:59.433Z,9.23
2023-03-04T06:53:26.763Z,9.13
2023-03-04T06:55:54.034Z,12.70
2023-03-04T06:58:21.264Z,9.93
2023-03-04T07:00:48.554Z,10.38
2023-03-04T07:03:16.000Z,10.27
2023-03-04T07:05:43.815Z,7.38
2023-03-04T07:08:11.113Z,10.35
2023-03-04T07:10:38.377Z,7.93
2023-03-04T07:13:05.601Z,11.93
2023-03-04T07:15:33.071Z,7.68
2023-03-04T07:18:00.300Z,8.02
2023-03-04T07:20:29.130Z,9.27
2023-03-04T07:22:57.937Z,8.85
2023-03-04T07:25:25.714Z,8.57
2023-03-04T07:27:53.063Z,10.13
2023-03-04T07:30:20.427Z,8.60
2023-03-04T07:32:47.786Z,8.23
2023-03-04T07:35:15.093Z,13.57
2023-03-04T07:37:42.374Z,7.25
2023-03-04T07:40:10.146Z,6.38
2023-03-04T07:42:38.047Z,5.55
2023-03-04T07:45:06.484Z,10.90
2023-03-04T07:47:33.765Z,8.10
2023-03-04T07:50:00.996Z,7.38
2023-03-04T07:52:28.238Z,4.80
2023-03-04T07:54:55.533Z,9.65
2023-03-04T07:57:22.753Z,9.13
2023-03-04T07:59:49.988Z,10.45
2023-03-04T08:02:17.295Z,9.40
2023-03-04T08:04:44.554Z,8.68
2023-03-04T08:07:11.804Z,9.70
2023-03-04T08:09:39.027Z,11.63
2023-03-04T08:12:06.400Z,6.68
2023-03-04T08:14:34.224Z,13.57
2023-03-04T08:17:01.509Z,6.82
2023-03-04T08:19:28.839Z,7.57
2023-03-04T08:21:56.148Z,6.63
2023-03-04T08:24:23.428Z,7.00
2023-03-04T08:26:51.045Z,9.98
2023-03-04T08:29:20.698Z,9.20
2023-03-04T08:31:49.323Z,6.50
2023-03-04T08:34:17.305Z,6.93
2023-03-04T08:36:44.743Z,4.90
2023-03-04T08:39:16.052Z,9.77
2023-03-04T08:41:43.680Z,5.60
2023-03-04T08:44:11.155Z,7.93
2023-03-04T08:46:39.185Z,6.18
2023-03-04T08:49:06.554Z,7.63
2023-03-04T08:51:35.862Z,9.65
2023-03-04T08:54:05.989Z,6.63
2023-03-04T08:56:33.278Z,4.38
2023-03-04T08:59:00.600Z,6.35
2023-03-04T09:01:27.967Z,7.78
2023-03-04T09:03:55.651Z,10.32
2023-03-04T09:06:22.958Z,5.68
2023-03-04T09:08:50.303Z,3.75
2023-03-04T09:11:17.969Z,5.47
2023-03-04T09:13:45.394Z,3.90
2023-03-04T09:16:13.977Z,6.32
2023-03-04T09:18:42.173Z,8.25
2023-03-04T09:21:09.503Z,6.03
2023-03-04T09:23:37.622Z,4.82
2023-03-04T09:26:15.085Z,4.78
2023-03-04T09:28:42.328Z,4.43
2023-03-04T09:31:13.501Z,2.63
2023-03-04T09:33:43.101Z,4.28
2023-03-04T09:36:11.432Z,5.32
2023-03-04T09:38:39.406Z,6.18
2023-03-04T09:41:08.546Z,12.88
2023-03-04T09:43:36.035Z,5.43
2023-03-04T09:46:05.553Z,4.93
2023-03-04T09:48:39.165Z,5.45
2023-03-04T09:51:20.452Z,7.47
2023-03-04T09:53:59.117Z,4.65
2023-03-04T09:56:27.120Z,3.05
2023-03-04T09:59:14.376Z,4.13
2023-03-04T10:01:53.112Z,5.95
2023-03-04T10:04:40.694Z,4.25
2023-03-04T10:07:14.205Z,3.65
2023-03-04T10:09:50.491Z,7.68
2023-03-04T10:12:20.472Z,5.00
2023-03-04T10:14:53.118Z,5.18
2023-03-04T10:17:23.443Z,5.95
2023-03-04T10:20:04.312Z,3.30
2023-03-04T10:22:45.782Z,6.13
2023-03-04T10:25:25.443Z,4.30
2023-03-04T10:27:52.660Z,4.63
2023-03-04T10:30:27.459Z,8.23
2023-03-04T10:32:55.902Z,4.68
2023-03-04T10:35:24.145Z,6.65
2023-03-04T10:37:51.712Z,4.85
2023-03-04T10:40:20.174Z,8.32
2023-03-04T10:42:49.613Z,3.92
2023-03-04T10:45:21.526Z,3.50
2023-03-04T10:47:58.901Z,5.22
2023-03-04T10:50:28.219Z,5.65
2023-03-04T10:52:56.299Z,3.13
2023-03-04T10:55:25.639Z,4.18
2023-03-04T10:57:56.898Z,3.47
2023-03-04T11:00:32.218Z,2.63
2023-03-04T11:03:18.345Z,5.00
2023-03-04T11:05:45.630Z,4.78
2023-03-04T11:08:20.414Z,5.78
2023-03-04T11:10:47.948Z,4.20
2023-03-04T11:13:23.112Z,3.30
2023-03-04T11:16:01.518Z,3.42
2023-03-04T11:18:39.147Z,4.22
2023-03-04T11:21:07.478Z,2.85
2023-03-04T11:23:34.709Z,4.00
2023-03-04T11:26:06.460Z,2.08
2023-03-04T11:28:48.038Z,4.00
2023-03-04T11:31:18.717Z,2.53
2023-03-04T11:33:52.226Z,2.80
2023-03-04T11:36:19.425Z,2.83
2023-03-04T11:38:48.555Z,1.95
2023-03-04T11:41:36.052Z,2.15
2023-03-04T11:44:06.333Z,2.00
2023-03-04T11:46:45.919Z,2.47
2023-03-04T11:49:31.976Z,3.47
2023-03-04T11:52:05.346Z,2.67
2023-03-04T11:54:51.389Z,2.80
2023-03-04T11:57:18.664Z,5.05
2023-03-04T11:59:56.592Z,4.82
2023-03-04T12:02:47.095Z,2.50
2023-03-04T12:05:17.397Z,3.35
2023-03-04T12:07:47.673Z,3.03
2023-03-04T12:10:27.297Z,4.47
2023-03-04T12:12:54.530Z,3.25
2023-03-04T12:15:28.259Z,4.97
2023-03-04T12:17:58.693Z,4.03
2023-03-04T12:20:28.846Z,3.78
2023-03-04T12:23:14.620Z,5.13
2023-03-04T12:28:29.318Z,3.13
2023-03-04T12:31:05.689Z,3.83
2023-03-04T12:33:56.455Z,13.10
2023-03-04T12:36:34.427Z,4.50
2023-03-04T12:39:04.927Z,5.88
2023-03-04T12:41:38.106Z,5.53
2023-03-04T12:44:23.465Z,5.82
2023-03-04T12:46:59.746Z,4.35
2023-03-04T12:49:35.639Z,3.40
2023-03-04T12:52:32.344Z,5.25
2023-03-04T12:55:03.128Z,7.28
2023-03-04T12:57:31.886Z,6.28
2023-03-04T13:00:05.812Z,4.07
2023-03-04T13:02:39.255Z,10.32
2023-03-04T13:05:18.771Z,3.92
2023-03-04T13:07:58.499Z,6.30
2023-03-04T13:10:25.832Z,4.70
2023-03-04T13:12:54.977Z,5.75
2023-03-04T13:15:22.183Z,6.40
2023-03-04T13:17:51.279Z,6.03
2023-03-04T13:20:33.551Z,5.13
2023-03-04T13:23:01.183Z,3.20
2023-03-04T13:25:34.583Z,10.80
2023-03-04T13:28:04.579Z,5.20
2023-03-04T13:30:34.739Z,6.88
2023-03-04T13:33:11.270Z,5.43
2023-03-04T13:35:44.725Z,6.55
2023-03-04T13:38:21.141Z,4.75
2023-03-04T13:41:07.202Z,3.97
2023-03-04T13:43:41.577Z,5.20
2023-03-04T13:46:21.252Z,3.93
2023-03-04T13:48:51.620Z,7.97
2023-03-04T13:51:41.431Z,2.97
2023-03-04T13:54:14.396Z,4.85
2023-03-04T13:56:41.742Z,5.15
2023-03-04T13:59:08.979Z,5.38
2023-03-04T14:01:38.006Z,3.25
2023-03-04T14:04:31.508Z,5.38
2023-03-04T14:07:00.147Z,6.47
2023-03-04T14:09:31.719Z,4.93
2023-03-04T14:12:03.933Z,10.02
2023-03-04T14:14:33.466Z,3.85
2023-03-04T14:17:05.152Z,3.15
2023-03-04T14:19:36.106Z,3.80
2023-03-04T14:22:03.438Z,3.58
2023-03-04T14:24:31.130Z,3.95
2023-03-04T14:27:11.596Z,2.53
2023-03-04T14:29:38.831Z,7.10
2023-03-04T14:32:06.853Z,4.18
2023-03-04T14:34:36.470Z,2.75
2023-03-04T14:37:05.750Z,3.28
2023-03-04T14:39:37.164Z,1.88
2023-03-04T14:42:09.653Z,2.72
2023-03-04T14:44:48.745Z,4.15
2023-03-04T14:47:48.914Z,3.95
2023-03-04T14:50:20.609Z,4.20
2023-03-04T14:52:52.151Z,2.63
2023-03-04T14:55:22.347Z,2.63
2023-03-04T14:57:53.799Z,1.60
2023-03-04T15:00:21.896Z,2.53
2023-03-04T15:02:50.744Z,3.15
2023-03-04T15:05:26.695Z,5.78
2023-03-04T15:07:58.475Z,3.88
2023-03-04T15:10:27.861Z,2.45
2023-03-04T15:12:56.182Z,3.17
2023-03-04T15:15:32.833Z,7.88
2023-03-04T15:18:15.291Z,1.50
2023-03-04T15:20:42.564Z,5.07
2023-03-04T15:23:14.830Z,3.13
2023-03-04T15:25:42.128Z,3.40
2023-03-04T15:28:16.227Z,4.10
2023-03-04T15:30:43.648Z,3.60
2023-03-04T15:33:11.547Z,3.95
2023-03-04T15:35:39.364Z,2.15
2023-03-04T15:38:07.645Z,3.78
2023-03-04T15:40:39.219Z,5.60
2023-03-04T15:43:10.158Z,4.90
2023-03-04T15:45:38.690Z,10.60
2023-03-04T15:48:08.112Z,3.67
2023-03-04T15:50:43.136Z,3.92
2023-03-04T15:53:43.055Z,5.63
2023-03-04T15:56:13.747Z,4.63
2023-03-04T15:58:41.094Z,6.15
2023-03-04T16:01:08.449Z,6.30
2023-03-04T16:03:35.740Z,5.78
2023-03-04T16:06:02.958Z,23.27
2023-03-04T16:08:30.273Z,2.97
2023-03-04T16:10:57.506Z,11.18
2023-03-04T16:13:25.074Z,6.15
2023-03-04T16:15:52.950Z,23.95
2023-03-04T16:18:20.328Z,4.65
2023-03-04T16:20:48.995Z,8.48
2023-03-04T16:23:18.878Z,6.75
2023-03-04T16:25:47.825Z,5.22
2023-03-04T16:28:15.392Z,5.30
2023-03-04T16:30:43.102Z,7.28
2023-03-04T16:33:11.554Z,5.38
2023-03-04T16:35:39.558Z,7.03
2023-03-04T16:38:13.150Z,5.95
2023-03-04T16:40:40.480Z,5.90
2023-03-04T16:43:07.879Z,4.78
2023-03-04T16:45:37.131Z,5.55
2023-03-04T16:48:04.518Z,5.30
2023-03-04T16:50:31.868Z,7.22
2023-03-04T16:52:59.108Z,5.57
2023-03-04T16:55:31.526Z,8.90
2023-03-04T16:57:59.105Z,7.93
2023-03-04T17:00:27.838Z,3.15
2023-03-04T17:02:57.031Z,8.30
2023-03-04T17:05:25.236Z,5.68
2023-03-04T17:07:52.522Z,6.93
2023-03-04T17:10:20.258Z,7.10
2023-03-04T17:12:47.686Z,5.20
2023-03-04T17:15:15.286Z,5.30
2023-03-04T17:17:42.888Z,7.50
2023-03-04T17:20:12.093Z,6.38
2023-03-04T17:22:39.470Z,11.82
2023-03-04T17:25:07.039Z,8.88
2023-03-04T17:27:34.439Z,7.15
2023-03-04T17:30:01.766Z,3.72
2023-03-04T17:32:31.636Z,7.00
2023-03-04T17:34:59.612Z,3.97
2023-03-04T17:37:27.230Z,5.63
2023-03-04T17:39:54.583Z,4.82
2023-03-04T17:42:22.002Z,5.88
2023-03-04T17:44:49.300Z,7.70
2023-03-04T17:47:17.421Z,19.02
2023-03-04T17:49:44.632Z,9.90
2023-03-04T17:52:12.566Z,5.90
2023-03-04T17:54:39.856Z,8.43
2023-03-04T17:57:07.249Z,4.38
2023-03-04T17:59:37.297Z,6.70
2023-03-04T18:02:06.047Z,5.93
2023-03-04T18:04:33.332Z,7.63
2023-03-04T18:07:00.597Z,7.97
2023-03-04T18:09:27.970Z,11.55
2023-03-04T18:11:55.234Z,8.05
2023-03-04T18:14:22.512Z,12.32
2023-03-04T18:16:49.722Z,9.35
2023-03-04T18:19:18.672Z,9.45
2023-03-04T18:21:46.124Z,10.25
2023-03-04T18:24:13.380Z,6.78
2023-03-04T18:26:40.609Z,6.05
2023-03-04T18:29:07.881Z,10.05
2023-03-04T18:31:36.949Z,13.25
2023-03-04T18:34:04.990Z,7.18
2023-03-04T18:36:32.434Z,7.63
2023-03-04T18:38:59.994Z,8.15
2023-03-04T18:41:28.076Z,4.30
2023-03-04T18:43:55.504Z,6.32
2023-03-04T18:46:25.577Z,4.90
2023-03-04T18:48:54.075Z,6.53
2023-03-04T18:51:21.504Z,7.97
2023-03-04T18:53:48.873Z,8.65
2023-03-04T18:56:26.040Z,7.38
2023-03-04T18:58:53.285Z,9.18
2023-03-04T19:01:22.045Z,8.93
2023-03-04T19:03:50.785Z,11.25
2023-03-04T19:06:18.203Z,7.50
2023-03-04T19:08:45.442Z,8.88
2023-03-04T19:11:13.365Z,5.53
2023-03-04T19:13:40.690Z,8.68
2023-03-04T19:16:08.150Z,7.20
2023-03-04T19:18:35.391Z,7.53
2023-03-04T19:21:05.182Z,9.45
2023-03-04T19:23:32.588Z,6.00
2023-03-04T19:25:59.931Z,7.05
2023-03-04T19:28:27.188Z,7.30
2023-03-04T19:30:58.760Z,9.18
2023-03-04T19:33:29.362Z,9.60
2023-03-04T19:35:56.677Z,6.75
2023-03-04T19:38:23.923Z,6.18
2023-03-04T19:40:51.250Z,5.80
2023-03-04T19:43:18.756Z,7.88
2023-03-04T19:45:52.811Z,3.90
2023-03-04T19:48:20.146Z,5.30
2023-03-04T19:50:47.393Z,6.43
2023-03-04T19:53:18.584Z,9.82
2023-03-04T19:55:49.409Z,4.28
2023-03-04T19:58:17.471Z,6.88
2023-03-04T20:00:45.296Z,8.13
2023-03-04T20:03:12.857Z,6.38
2023-03-04T20:05:40.303Z,6.78
2023-03-04T20:08:07.556Z,8.25
2023-03-04T20:10:38.847Z,6.00
2023-03-04T20:13:06.813Z,6.32
2023-03-04T20:15:35.204Z,8.35
2023-03-04T20:18:02.806Z,7.03
2023-03-04T20:20:30.051Z,4.00
2023-03-04T20:22:57.400Z,5.80
2023-03-04T20:25:25.385Z,9.63
2023-03-04T20:27:52.707Z,8.70
2023-03-04T20:30:19.930Z,3.50
2023-03-04T20:32:48.485Z,4.13
2023-03-04T20:35:15.918Z,5.80
2023-03-04T20:37:43.594Z,4.43
2023-03-04T20:40:11.777Z,6.97
2023-03-04T20:42:39.079Z,7.65
2023-03-04T20:45:06.670Z,9.80
2023-03-04T20:47:34.192Z,8.77
2023-03-04T20:50:01.498Z,5.93
2023-03-04T20:52:28.842Z,4.68
2023-03-04T20:54:56.093Z,7.55
2023-03-04T20:57:23.444Z,6.53
2023-03-04T20:59:50.681Z,16.50
2023-03-04T21:02:19.899Z,11.30
2023-03-04T21:04:47.315Z,7.30
2023-03-04T21:07:14.761Z,5.72
2023-03-04T21:09:42.099Z,7.90
2023-03-04T21:12:10.332Z,6.25
2023-03-04T21:14:37.563Z,3.78
2023-03-04T21:17:05.437Z,9.88
2023-03-04T21:19:34.774Z,11.20
2023-03-04T21:22:02.303Z,6.50
2023-03-04T21:24:31.164Z,7.35
2023-03-04T21:26:58.842Z,9.18
2023-03-04T21:29:28.222Z,6.80
2023-03-04T21:31:57.050Z,6.00
2023-03-04T21:34:26.867Z,5.55
2023-03-04T21:36:54.124Z,16.13
2023-03-04T21:39:23.669Z,6.53
2023-03-04T21:41:51.359Z,6.80
2023-03-04T21:44:28.469Z,7.30
2023-03-04T21:47:00.874Z,7.22
2023-03-04T21:49:28.645Z,6.38
2023-03-04T21:51:55.932Z,7.03
2023-03-04T21:54:23.243Z,3.55
2023-03-04T21:56:50.580Z,10.07
2023-03-04T21:59:18.382Z,4.47
2023-03-04T22:01:45.724Z,8.50
2023-03-04T22:04:13.330Z,5.35
2023-03-04T22:06:41.439Z,5.00
2023-03-04T22:09:09.731Z,6.00
2023-03-04T22:11:37.098Z,8.50
2023-03-04T22:14:05.576Z,6.35
2023-03-04T22:16:37.518Z,5.88
2023-03-04T22:19:07.156Z,8.40
2023-03-04T22:21:34.431Z,7.35
2023-03-04T22:24:01.693Z,9.13
2023-03-04T22:26:32.975Z,6.63
2023-03-04T22:29:02.002Z,4.85
2023-03-04T22:31:30.816Z,6.38
2023-03-04T22:33:58.577Z,5.75
2023-03-04T22:36:26.001Z,8.07
2023-03-04T22:38:53.268Z,4.88
2023-03-04T22:41:21.077Z,3.95
2023-03-04T22:43:48.781Z,6.20
2023-03-04T22:46:17.387Z,10.07
2023-03-04T22:48:44.759Z,4.45
2023-03-04T22:51:12.734Z,5.00
2023-03-04T22:53:40.469Z,3.85
2023-03-04T22:56:07.902Z,6.60
2023-03-04T22:58:35.304Z,5.68
2023-03-04T23:01:03.481Z,5.28
2023-03-04T23:03:31.168Z,5.75
2023-03-04T23:06:02.856Z,5.32
2023-03-04T23:08:30.174Z,6.38
2023-03-04T23:10:57.501Z,4.55
2023-03-04T23:13:24.882Z,3.58
2023-03-04T23:15:52.332Z,6.60
2023-03-04T23:18:19.624Z,6.32
2023-03-04T23:20:46.950Z,7.72
2023-03-04T23:23:14.252Z,4.07
2023-03-04T23:25:41.561Z,4.80
2023-03-04T23:28:08.906Z,4.60
2023-03-04T23:30:36.285Z,3.80
2023-03-04T23:33:03.593Z,2.45
2023-03-04T23:35:30.904Z,5.60
2023-03-04T23:37:58.158Z,7.07
2023-03-04T23:40:25.421Z,4.82
2023-03-04T23:42:52.655Z,4.55
2023-03-04T23:45:19.921Z,3.08
2023-03-04T23:47:47.183Z,4.50
2023-03-04T23:50:16.141Z,4.18
2023-03-04T23:52:44.283Z,6.65
2023-03-04T23:55:16.779Z,4.38
2023-03-04T23:57:44.830Z,6.22
